createdAt,value
2018-05-14T00:01:31.033Z,14.80
2018-05-14T00:04:00.517Z,14.70
2018-05-14T00:06:29.708Z,14.70
2018-05-14T00:08:59.583Z,14.70
2018-05-14T00:11:29.033Z,14.80
2018-05-14T00:13:58.518Z,14.80
2018-05-14T00:16:27.980Z,14.80
2018-05-14T00:18:57.737Z,14.80
2018-05-14T00:21:27.592Z,14.70
2018-05-14T00:23:57.073Z,14.80
2018-05-14T00:26:26.621Z,14.80
2018-05-14T00:28:56.098Z,14.80
2018-05-14T00:31:25.796Z,14.80
2018-05-14T00:33:55.325Z,14.80
2018-05-14T00:36:24.801Z,14.80
2018-05-14T00:38:54.260Z,14.70
2018-05-14T00:41:23.720Z,14.70
2018-05-14T00:43:53.604Z,14.70
2018-05-14T00:46:22.717Z,14.80
2018-05-14T00:48:52.220Z,14.70
2018-05-14T00:51:21.933Z,14.80
2018-05-14T00:53:54.645Z,14.80
2018-05-14T00:56:24.101Z,14.70
2018-05-14T00:58:53.561Z,14.80
2018-05-14T01:01:23.422Z,14.80
2018-05-14T01:03:53.006Z,14.80
2018-05-14T01:06:22.213Z,14.90
2018-05-14T01:08:52.104Z,14.90
2018-05-14T01:11:21.561Z,15.00
2018-05-14T01:13:51.122Z,14.90
2018-05-14T01:16:20.593Z,14.90
2018-05-14T01:18:50.077Z,14.80
2018-05-14T01:21:19.560Z,14.90
2018-05-14T01:23:49.443Z,14.70
2018-05-14T01:26:18.880Z,14.80
2018-05-14T01:28:48.348Z,14.70
2018-05-14T01:31:17.639Z,14.70
2018-05-14T01:33:47.516Z,14.70
2018-05-14T01:36:16.972Z,14.70
2018-05-14T01:38:46.436Z,14.60
2018-05-14T01:41:15.924Z,14.60
2018-05-14T01:43:45.151Z,14.60
2018-05-14T01:46:14.781Z,14.60
2018-05-14T01:48:44.283Z,14.60
2018-05-14T01:51:13.773Z,14.60
2018-05-14T01:53:43.329Z,14.60
2018-05-14T01:56:13.232Z,14.70
2018-05-14T01:58:42.708Z,14.70
2018-05-14T02:01:11.861Z,14.70
2018-05-14T02:03:41.330Z,14.70
2018-05-14T02:06:10.803Z,14.80
2018-05-14T02:08:40.277Z,14.70
2018-05-14T02:11:09.802Z,14.80
2018-05-14T02:13:39.258Z,14.70
2018-05-14T02:16:09.714Z,14.60
2018-05-14T02:18:39.195Z,14.50
2018-05-14T02:21:08.664Z,14.60
2018-05-14T02:23:38.139Z,14.70
2018-05-14T02:26:07.602Z,14.60
2018-05-14T02:28:37.081Z,14.60
2018-05-14T02:31:06.193Z,14.60
2018-05-14T02:33:35.681Z,14.60
2018-05-14T02:36:05.751Z,14.50
2018-05-14T02:38:35.229Z,14.60
2018-05-14T02:41:05.103Z,14.60
2018-05-14T02:43:34.781Z,14.50
2018-05-14T02:46:04.689Z,14.60
2018-05-14T02:48:34.255Z,14.60
2018-05-14T02:51:03.725Z,14.60
2018-05-14T02:53:33.209Z,14.60
2018-05-14T02:56:02.675Z,14.60
2018-05-14T02:58:32.149Z,14.60
2018-05-14T03:01:01.629Z,14.60
2018-05-14T03:03:31.107Z,14.60
2018-05-14T03:06:00.553Z,14.60
2018-05-14T03:08:30.038Z,14.80
2018-05-14T03:10:59.522Z,14.80
2018-05-14T03:13:29.417Z,14.80
2018-05-14T03:15:58.880Z,14.80
2018-05-14T03:18:28.349Z,14.70
2018-05-14T03:20:57.543Z,14.70
2018-05-14T03:23:27.005Z,14.60
2018-05-14T03:25:56.458Z,14.60
2018-05-14T03:28:26.330Z,14.70
2018-05-14T03:30:55.809Z,14.80
2018-05-14T03:33:25.685Z,14.80
2018-05-14T03:35:55.129Z,14.80
2018-05-14T03:38:24.602Z,14.70
2018-05-14T03:40:54.052Z,14.80
2018-05-14T03:43:23.504Z,14.80
2018-05-14T03:45:53.405Z,14.70
2018-05-14T03:48:22.870Z,14.80
2018-05-14T03:50:52.353Z,14.90
2018-05-14T03:53:21.843Z,14.90
2018-05-14T03:55:51.309Z,14.90
2018-05-14T03:58:32.089Z,14.90
2018-05-14T04:04:34.308Z,14.90
2018-05-14T04:07:03.523Z,14.80
2018-05-14T04:09:32.998Z,14.70
2018-05-14T04:12:02.450Z,14.80
2018-05-14T04:14:32.315Z,14.80
2018-05-14T04:17:01.799Z,14.80
2018-05-14T04:19:31.685Z,14.90
2018-05-14T04:22:03.175Z,14.90
2018-05-14T04:24:32.647Z,15.00
2018-05-14T04:27:02.353Z,15.10
2018-05-14T04:29:32.217Z,15.10
2018-05-14T04:32:01.677Z,15.00
2018-05-14T04:34:31.557Z,15.10
2018-05-14T04:37:01.060Z,15.20
2018-05-14T04:39:30.524Z,15.20
2018-05-14T04:42:00.018Z,15.20
2018-05-14T04:44:29.485Z,15.10
2018-05-14T04:46:58.937Z,15.10
2018-05-14T04:49:28.112Z,15.00
2018-05-14T04:51:57.595Z,15.10
2018-05-14T04:54:27.062Z,15.10
2018-05-14T04:56:56.541Z,15.20
2018-05-14T04:59:26.124Z,15.30
2018-05-14T05:01:55.999Z,15.30
2018-05-14T05:04:25.680Z,15.30
2018-05-14T05:06:55.562Z,15.20
2018-05-14T05:09:24.841Z,15.30
2018-05-14T05:11:54.317Z,15.30
2018-05-14T05:14:25.740Z,15.30
2018-05-14T05:16:55.225Z,15.40
2018-05-14T05:19:25.124Z,15.50
2018-05-14T05:21:54.560Z,15.40
2018-05-14T05:24:24.141Z,15.50
2018-05-14T05:26:53.625Z,15.50
2018-05-14T05:29:23.480Z,15.60
2018-05-14T05:31:52.994Z,15.60
2018-05-14T05:34:22.436Z,15.70
2018-05-14T05:36:51.918Z,15.70
2018-05-14T05:39:21.796Z,15.80
2018-05-14T05:41:51.310Z,15.90
2018-05-14T05:44:20.773Z,15.90
2018-05-14T05:46:50.238Z,15.90
2018-05-14T05:49:19.686Z,16.00
2018-05-14T05:51:49.132Z,16.10
2018-05-14T05:54:18.972Z,16.30
2018-05-14T05:56:48.857Z,16.30
2018-05-14T05:59:18.318Z,16.40
2018-05-14T06:01:48.248Z,16.40
2018-05-14T06:04:17.865Z,16.30
2018-05-14T06:06:47.309Z,16.40
2018-05-14T06:09:16.785Z,16.30
2018-05-14T06:11:46.286Z,16.40
2018-05-14T06:14:15.785Z,16.50
2018-05-14T06:16:45.268Z,16.50
2018-05-14T06:19:14.931Z,16.60
2018-05-14T06:21:44.405Z,16.80
2018-05-14T06:24:13.873Z,16.90
2018-05-14T06:26:43.326Z,17.00
2018-05-14T06:29:12.787Z,17.00
2018-05-14T06:31:42.657Z,17.20
2018-05-14T06:34:12.106Z,17.10
2018-05-14T06:36:41.587Z,17.20
2018-05-14T06:39:11.068Z,17.20
2018-05-14T06:41:40.957Z,17.20
2018-05-14T06:44:10.405Z,17.20
2018-05-14T06:46:40.126Z,17.20
2018-05-14T06:49:09.568Z,17.20
2018-05-14T06:51:39.469Z,17.40
2018-05-14T06:54:08.941Z,17.40
2018-05-14T06:56:38.111Z,17.50
2018-05-14T06:59:07.574Z,17.60
2018-05-14T07:01:37.034Z,17.80
2018-05-14T07:04:06.504Z,17.90
2018-05-14T07:06:36.366Z,18.20
2018-05-14T07:09:05.908Z,18.20
2018-05-14T07:11:35.186Z,18.30
2018-05-14T07:14:04.765Z,18.40
2018-05-14T07:16:34.244Z,18.30
2018-05-14T07:19:03.713Z,18.40
2018-05-14T07:21:33.185Z,18.30
2018-05-14T07:24:02.644Z,18.40
2018-05-14T07:26:32.222Z,18.50
2018-05-14T07:29:01.697Z,18.50
2018-05-14T07:31:31.211Z,18.60
2018-05-14T07:34:00.646Z,18.50
2018-05-14T07:36:30.546Z,18.80
2018-05-14T07:39:00.206Z,18.80
2018-05-14T07:41:29.821Z,19.00
2018-05-14T07:43:59.713Z,19.00
2018-05-14T07:46:29.180Z,19.00
2018-05-14T07:48:59.404Z,19.10
2018-05-14T07:51:28.874Z,19.10
2018-05-14T07:53:58.313Z,19.20
2018-05-14T07:56:27.772Z,19.10
2018-05-14T07:58:57.667Z,19.60
2018-05-14T08:01:27.130Z,19.60
2018-05-14T08:03:57.018Z,19.90
2018-05-14T08:06:26.493Z,19.90
2018-05-14T08:08:55.616Z,19.90
2018-05-14T08:11:24.796Z,20.00
2018-05-14T08:13:54.687Z,20.30
2018-05-14T08:16:24.121Z,20.30
2018-05-14T08:18:53.597Z,20.30
2018-05-14T08:21:22.710Z,20.30
2018-05-14T08:23:52.166Z,20.30
2018-05-14T08:26:21.328Z,20.60
2018-05-14T08:28:50.812Z,20.80
2018-05-14T08:31:20.284Z,20.90
2018-05-14T08:33:49.730Z,20.90
2018-05-14T08:36:19.179Z,21.00
2018-05-14T08:38:48.672Z,21.20
2018-05-14T08:41:18.133Z,21.40
2018-05-14T08:43:48.037Z,21.70
2018-05-14T08:46:17.516Z,21.70
2018-05-14T08:48:46.984Z,21.90
2018-05-14T08:51:16.457Z,22.00
2018-05-14T08:53:45.905Z,22.20
2018-05-14T08:56:15.399Z,22.20
2018-05-14T08:58:44.849Z,22.10
2018-05-14T09:01:14.288Z,21.90
2018-05-14T09:03:43.792Z,22.10
2018-05-14T09:06:13.257Z,22.20
2018-05-14T09:08:43.119Z,22.70
2018-05-14T09:11:12.768Z,22.70
2018-05-14T09:13:42.217Z,22.80
2018-05-14T09:16:12.117Z,22.80
2018-05-14T09:18:41.615Z,22.90
2018-05-14T09:21:11.052Z,23.00
2018-05-14T09:23:40.501Z,23.10
2018-05-14T09:26:09.977Z,23.30
2018-05-14T09:28:39.448Z,23.70
2018-05-14T09:31:08.918Z,24.00
2018-05-14T09:33:38.394Z,24.00
2018-05-14T09:36:08.234Z,23.70
2018-05-14T09:38:38.132Z,23.90
2018-05-14T09:41:07.604Z,23.90
2018-05-14T09:43:36.825Z,24.00
2018-05-14T09:46:06.313Z,24.20
2018-05-14T09:48:36.185Z,24.50
2018-05-14T09:51:05.301Z,24.60
2018-05-14T09:53:34.750Z,24.60
2018-05-14T09:56:04.210Z,24.30
2018-05-14T09:58:33.666Z,24.20
2018-05-14T10:01:03.634Z,24.30
2018-05-14T10:03:33.043Z,24.30
2018-05-14T10:06:02.682Z,24.20
2018-05-14T10:08:32.525Z,24.70
2018-05-14T10:11:02.000Z,24.70
2018-05-14T10:13:31.476Z,24.90
2018-05-14T10:16:00.932Z,25.10
2018-05-14T10:18:30.391Z,25.20
2018-05-14T10:21:00.223Z,25.10
2018-05-14T10:23:30.199Z,25.00
2018-05-14T10:25:59.367Z,25.00
2018-05-14T10:28:29.031Z,25.10
2018-05-14T10:30:58.481Z,25.00
2018-05-14T10:33:27.948Z,25.00
2018-05-14T10:35:57.805Z,25.40
2018-05-14T10:38:27.294Z,25.40
2018-05-14T10:40:57.145Z,24.90
2018-05-14T10:43:26.605Z,24.90
2018-05-14T10:45:55.783Z,25.20
2018-05-14T10:48:25.231Z,25.20
2018-05-14T10:50:54.685Z,25.10
2018-05-14T10:53:24.546Z,24.90
2018-05-14T10:55:54.052Z,24.90
2018-05-14T10:58:23.893Z,25.00
2018-05-14T11:00:53.378Z,25.00
2018-05-14T11:03:22.833Z,25.00
2018-05-14T11:05:52.307Z,25.30
2018-05-14T11:08:21.753Z,25.60
2018-05-14T11:10:51.632Z,25.30
2018-05-14T11:13:21.081Z,25.30
2018-05-14T11:15:50.559Z,24.90
2018-05-14T11:18:19.993Z,24.90
2018-05-14T11:20:49.432Z,24.80
2018-05-14T11:23:18.925Z,24.90
2018-05-14T11:25:49.357Z,24.90
2018-05-14T11:28:18.840Z,25.30
2018-05-14T11:30:48.750Z,25.60
2018-05-14T11:33:18.216Z,25.60
2018-05-14T11:35:47.689Z,25.40
2018-05-14T11:38:17.170Z,25.50
2018-05-14T11:40:46.617Z,25.70
2018-05-14T11:43:16.085Z,25.90
2018-05-14T11:45:45.985Z,26.00
2018-05-14T11:48:15.465Z,26.00
2018-05-14T11:50:44.925Z,25.70
2018-05-14T11:53:14.368Z,26.00
2018-05-14T11:55:44.242Z,26.60
2018-05-14T11:58:13.765Z,26.60
2018-05-14T12:00:43.201Z,26.80
2018-05-14T12:03:12.740Z,26.90
2018-05-14T12:05:42.357Z,26.70
2018-05-14T12:08:11.157Z,26.80
2018-05-14T12:10:40.653Z,27.00
2018-05-14T12:13:10.100Z,27.40
2018-05-14T12:15:39.813Z,28.00
2018-05-14T12:18:09.091Z,28.40
2018-05-14T12:20:38.672Z,28.70
2018-05-14T12:23:08.146Z,28.60
2018-05-14T12:25:37.675Z,28.70
2018-05-14T12:28:06.976Z,28.50
2018-05-14T12:30:36.433Z,28.50
2018-05-14T12:33:05.891Z,28.20
2018-05-14T12:35:35.744Z,28.70
2018-05-14T12:38:04.938Z,28.70
2018-05-14T12:40:34.834Z,28.60
2018-05-14T12:43:04.334Z,28.60
2018-05-14T12:45:33.807Z,29.00
2018-05-14T12:48:03.258Z,29.40
2018-05-14T12:50:32.712Z,29.50
2018-05-14T12:53:02.189Z,29.60
2018-05-14T12:55:31.668Z,29.60
2018-05-14T12:58:01.135Z,29.70
2018-05-14T13:00:30.605Z,30.00
2018-05-14T13:03:00.082Z,30.00
2018-05-14T13:05:29.566Z,29.90
2018-05-14T13:07:59.442Z,29.60
2018-05-14T13:10:28.913Z,29.60
2018-05-14T13:12:58.809Z,30.00
2018-05-14T13:15:28.815Z,30.00
2018-05-14T13:17:58.262Z,30.00
2018-05-14T13:20:27.755Z,30.20
2018-05-14T13:22:57.193Z,30.30
2018-05-14T13:25:26.658Z,30.30
2018-05-14T13:27:56.506Z,29.30
2018-05-14T13:30:25.981Z,29.30
2018-05-14T13:32:55.437Z,28.90
2018-05-14T13:35:25.301Z,28.70
2018-05-14T13:37:54.895Z,28.80
2018-05-14T13:40:24.440Z,29.00
2018-05-14T13:42:53.945Z,29.20
2018-05-14T13:45:23.854Z,29.00
2018-05-14T13:47:53.709Z,28.60
2018-05-14T13:50:23.205Z,28.50
2018-05-14T13:52:53.073Z,28.40
2018-05-14T13:55:22.228Z,28.40
2018-05-14T13:57:51.694Z,28.40
2018-05-14T14:00:21.213Z,28.60
2018-05-14T14:02:50.658Z,28.60
2018-05-14T14:05:20.121Z,28.70
2018-05-14T14:07:49.698Z,28.70
2018-05-14T14:10:19.529Z,29.40
2018-05-14T14:12:48.693Z,29.40
2018-05-14T14:15:18.552Z,30.00
2018-05-14T14:17:48.008Z,30.00
2018-05-14T14:20:17.469Z,30.20
2018-05-14T14:22:47.312Z,31.20
2018-05-14T14:25:16.805Z,31.20
2018-05-14T14:27:46.276Z,31.70
2018-05-14T14:30:15.712Z,31.50
2018-05-14T14:32:45.176Z,30.50
2018-05-14T14:35:14.639Z,29.90
2018-05-14T14:37:44.078Z,30.20
2018-05-14T14:52:19.362Z,29.20
2018-05-14T14:54:48.784Z,29.90
2018-05-14T14:57:18.252Z,31.40
2018-05-14T14:59:48.162Z,33.00
2018-05-14T15:02:18.078Z,33.00
2018-05-14T15:04:47.937Z,33.50
2018-05-14T15:07:17.395Z,33.50
2018-05-14T15:09:47.253Z,32.40
2018-05-14T15:12:16.725Z,32.40
2018-05-14T15:14:46.557Z,31.50
2018-05-14T15:17:16.023Z,31.40
2018-05-14T15:19:45.449Z,30.90
2018-05-14T15:22:14.909Z,30.60
2018-05-14T15:24:44.336Z,30.20
2018-05-14T15:27:13.820Z,30.00
2018-05-14T15:29:43.269Z,29.80
2018-05-14T15:32:12.916Z,29.60
2018-05-14T15:34:42.370Z,29.50
2018-05-14T15:37:11.796Z,29.30
2018-05-14T15:39:41.242Z,29.20
2018-05-14T15:42:10.715Z,29.00
2018-05-14T15:44:40.155Z,28.80
2018-05-14T15:47:09.804Z,28.60
2018-05-14T15:49:39.650Z,28.20
2018-05-14T15:52:09.098Z,28.20
2018-05-14T15:54:38.548Z,28.20
2018-05-14T15:57:07.989Z,28.20
2018-05-14T15:59:37.427Z,28.10
2018-05-14T16:02:07.374Z,28.10
2018-05-14T16:04:36.984Z,28.10
2018-05-14T16:07:06.609Z,28.10
2018-05-14T16:09:36.040Z,28.20
2018-05-14T16:12:05.144Z,28.40
2018-05-14T16:14:34.626Z,28.80
2018-05-14T16:17:04.248Z,29.10
2018-05-14T16:19:33.787Z,29.40
2018-05-14T16:22:02.996Z,29.40
2018-05-14T16:24:32.446Z,29.60
2018-05-14T16:27:01.903Z,29.80
2018-05-14T16:29:31.453Z,32.60
2018-05-14T16:34:59.988Z,36.10
2018-05-14T16:37:29.433Z,36.10
2018-05-14T16:39:58.893Z,36.00
2018-05-14T16:42:28.403Z,35.00
2018-05-14T16:44:58.019Z,33.90
2018-05-14T16:47:27.896Z,31.90
2018-05-14T16:49:58.372Z,31.90
2018-05-14T16:52:27.848Z,31.40
2018-05-14T16:54:57.312Z,31.10
2018-05-14T16:57:26.961Z,31.40
2018-05-14T16:59:56.508Z,32.40
2018-05-14T17:02:25.955Z,33.90
2018-05-14T17:04:55.403Z,35.00
2018-05-14T17:07:25.256Z,35.30
2018-05-14T17:09:54.685Z,35.40
2018-05-14T17:12:24.131Z,35.60
2018-05-14T17:14:53.609Z,35.10
2018-05-14T17:17:23.130Z,34.30
2018-05-14T17:19:52.716Z,33.00
2018-05-14T17:22:22.173Z,31.50
2018-05-14T17:24:51.645Z,30.50
2018-05-14T17:27:21.484Z,28.90
2018-05-14T17:29:50.949Z,28.90
2018-05-14T17:32:20.372Z,28.50
2018-05-14T17:34:50.249Z,28.20
2018-05-14T17:37:19.740Z,28.20
2018-05-14T17:39:50.387Z,28.80
2018-05-14T17:42:19.920Z,30.20
2018-05-14T17:44:49.364Z,31.30
2018-05-14T17:47:18.811Z,31.20
2018-05-14T17:49:48.268Z,31.00
2018-05-14T17:52:17.360Z,31.20
2018-05-14T17:54:46.800Z,31.60
2018-05-14T17:57:16.265Z,31.80
2018-05-14T17:59:46.075Z,32.80
2018-05-14T18:02:15.294Z,32.80
2018-05-14T18:04:44.728Z,32.90
2018-05-14T18:07:14.193Z,32.90
2018-05-14T18:09:43.645Z,33.00
2018-05-14T18:12:13.100Z,33.10
2018-05-14T18:14:42.539Z,33.20
2018-05-14T18:17:11.993Z,33.30
2018-05-14T18:22:45.589Z,33.00
2018-05-14T18:25:20.513Z,32.80
2018-05-14T18:27:55.529Z,32.50
2018-05-14T18:30:28.936Z,31.50
2018-05-14T18:33:02.390Z,29.00
2018-05-14T18:35:36.584Z,29.00
2018-05-14T18:38:06.079Z,27.50
2018-05-14T18:40:35.571Z,27.50
2018-05-14T18:43:05.035Z,26.90
2018-05-14T18:45:34.575Z,26.30
2018-05-14T18:48:03.781Z,25.90
2018-05-14T18:50:32.966Z,25.60
2018-05-14T18:53:02.456Z,25.40
2018-05-14T18:55:31.933Z,25.30
2018-05-14T18:58:01.796Z,25.00
2018-05-14T19:00:31.275Z,25.00
2018-05-14T19:03:00.813Z,24.90
2018-05-14T19:05:29.689Z,24.60
2018-05-14T19:07:59.154Z,24.60
2018-05-14T19:10:34.158Z,24.50
2018-05-14T19:13:03.632Z,24.50
2018-05-14T19:15:38.626Z,24.30
2018-05-14T19:18:08.081Z,24.00
2018-05-14T19:20:37.299Z,23.80
2018-05-14T19:23:12.196Z,23.60
2018-05-14T19:25:41.759Z,23.50
2018-05-14T19:28:17.204Z,23.20
2018-05-14T19:30:46.859Z,23.20
2018-05-14T19:33:23.371Z,22.80
2018-05-14T19:36:04.808Z,22.50
2018-05-14T19:38:34.849Z,22.00
2018-05-14T19:41:04.396Z,21.90
2018-05-14T19:43:39.998Z,21.90
2018-05-14T19:46:09.309Z,21.70
2018-05-14T19:48:38.778Z,21.50
2018-05-14T19:51:08.216Z,21.30
2018-05-14T19:53:37.749Z,21.10
2018-05-14T19:56:22.399Z,21.00
2018-05-14T19:58:51.846Z,20.70
2018-05-14T20:01:21.297Z,20.50
2018-05-14T20:03:50.733Z,20.40
2018-05-14T20:06:20.686Z,20.20
2018-05-14T20:08:50.278Z,20.20
2018-05-14T20:11:20.139Z,20.10
2018-05-14T20:13:49.663Z,20.10
2018-05-14T20:16:19.370Z,19.90
2018-05-14T20:18:48.828Z,19.90
2018-05-14T20:21:18.265Z,19.70
2018-05-14T20:23:47.776Z,19.60
2018-05-14T20:26:16.917Z,19.50
2018-05-14T20:28:46.350Z,19.40
2018-05-14T20:31:16.256Z,19.20
2018-05-14T20:33:45.928Z,19.20
2018-05-14T20:36:15.184Z,19.10
2018-05-14T20:38:44.644Z,19.00
2018-05-14T20:41:14.517Z,18.80
2018-05-14T20:43:43.958Z,18.90
2018-05-14T20:46:13.409Z,18.80
2018-05-14T20:48:43.255Z,18.70
2018-05-14T20:51:12.780Z,18.70
2018-05-14T20:53:42.616Z,18.40
2018-05-14T20:56:12.053Z,18.50
2018-05-14T20:58:41.285Z,18.30
2018-05-14T21:01:10.734Z,18.20
2018-05-14T21:03:40.197Z,18.10
2018-05-14T21:06:09.621Z,18.20
2018-05-14T21:08:39.082Z,18.00
2018-05-14T21:11:08.605Z,18.00
2018-05-14T21:13:38.033Z,18.00
2018-05-14T21:16:07.669Z,17.90
2018-05-14T21:18:37.501Z,17.80
2018-05-14T21:21:07.428Z,17.70
2018-05-14T21:23:37.297Z,17.60
2018-05-14T21:26:06.742Z,17.60
2018-05-14T21:28:36.497Z,17.50
2018-05-14T21:31:05.991Z,17.50
2018-05-14T21:33:35.425Z,17.40
2018-05-14T21:36:04.594Z,17.40
2018-05-14T21:38:33.848Z,17.30
2018-05-14T21:41:03.339Z,17.20
2018-05-14T21:43:32.784Z,17.20
2018-05-14T21:46:02.226Z,17.00
2018-05-14T21:48:32.057Z,16.90
2018-05-14T21:51:01.915Z,16.80
2018-05-14T21:53:31.364Z,16.80
2018-05-14T21:56:00.556Z,16.80
2018-05-14T21:58:29.704Z,16.70
2018-05-14T22:00:59.181Z,16.60
2018-05-14T22:03:28.634Z,16.60
2018-05-14T22:05:58.425Z,16.50
2018-05-14T22:08:27.608Z,16.50
2018-05-14T22:10:57.055Z,16.40
2018-05-14T22:13:26.485Z,16.30
2018-05-14T22:15:55.920Z,16.30
2018-05-14T22:18:25.401Z,16.30
2018-05-14T22:20:54.583Z,16.20
2018-05-14T22:23:24.049Z,16.10
2018-05-14T22:25:53.505Z,16.00
2018-05-14T22:28:22.983Z,15.90
2018-05-14T22:30:52.853Z,15.80
2018-05-14T22:33:22.308Z,15.80
2018-05-14T22:35:51.864Z,15.70
2018-05-14T22:38:21.336Z,15.70
2018-05-14T22:40:50.817Z,15.60
2018-05-14T22:43:20.265Z,15.50
2018-05-14T22:45:49.702Z,15.50
2018-05-14T22:48:19.265Z,15.40
2018-05-14T22:50:48.720Z,15.40
2018-05-14T22:53:18.215Z,15.30
2018-05-14T22:55:47.662Z,15.30
2018-05-14T22:58:17.128Z,15.30
2018-05-14T23:00:46.622Z,15.10
2018-05-14T23:03:16.076Z,15.00
2018-05-14T23:05:45.949Z,15.00
2018-05-14T23:08:15.216Z,15.00
2018-05-14T23:10:45.088Z,15.00
2018-05-14T23:13:14.524Z,14.90
2018-05-14T23:15:43.988Z,14.90
2018-05-14T23:18:13.837Z,14.70
2018-05-14T23:20:43.301Z,14.80
2018-05-14T23:23:12.753Z,14.70
2018-05-14T23:25:42.618Z,14.60
2018-05-14T23:28:11.792Z,14.70
2018-05-14T23:30:41.644Z,14.40
2018-05-14T23:33:11.097Z,14.40
2018-05-14T23:35:40.583Z,14.30
2018-05-14T23:38:10.030Z,14.30
2018-05-14T23:40:39.477Z,14.20
2018-05-14T23:43:08.925Z,14.20
2018-05-14T23:45:38.793Z,14.10
2018-05-14T23:48:07.976Z,14.20
2018-05-14T23:50:37.840Z,14.00
2018-05-14T23:53:07.295Z,14.10
2018-05-14T23:55:36.741Z,14.00
2018-05-14T23:58:06.606Z,13.80
